Time;durP1;ratioP1;P1;durP2;ratioP2;P2;SDS_P1;SDS_P2;PMS_P1;PMS_P2;Temp;Humidity;BMP_temperature;BMP_pressure;BME280_temperature;BME280_humidity;BME280_pressure;Samples;Min_cycle;Max_cycle;Signal;HPM_P1;HPM_P2
2022/08/26 00:01:33;;;;;;;4.47;4.13;;;;;;;24.55;86.78;98739.00;5071166;28;20556;-65
2022/08/26 00:04:00;;;;;;;9.60;4.07;;;;;;;24.61;85.83;98735.78;5071030;28;21119;-66
2022/08/26 00:06:29;;;;;;;11.13;3.60;;;;;;;24.63;85.34;98731.19;5070828;28;20196;-65
2022/08/26 00:08:55;;;;;;;7.67;3.90;;;;;;;24.68;87.03;98734.22;5070888;28;20663;-65
2022/08/26 00:11:22;;;;;;;4.03;3.33;;;;;;;24.70;85.74;98734.88;5071128;28;20192;-66
2022/08/26 00:13:49;;;;;;;6.57;3.00;;;;;;;24.73;86.14;98728.50;5071070;28;20686;-65
2022/08/26 00:16:17;;;;;;;13.30;3.37;;;;;;;24.74;86.20;98728.34;5071448;28;20664;-65
2022/08/26 00:18:43;;;;;;;5.20;3.27;;;;;;;24.66;85.80;98715.16;5070866;28;20215;-65
2022/08/26 00:21:10;;;;;;;12.53;3.40;;;;;;;24.73;85.48;98731.09;5070615;28;20226;-65
2022/08/26 00:23:39;;;;;;;10.10;3.40;;;;;;;24.64;86.46;98738.09;5070936;28;20211;-65
2022/08/26 00:26:06;;;;;;;4.73;3.60;;;;;;;24.64;85.94;98740.72;5070212;28;20211;-65
2022/08/26 00:28:34;;;;;;;9.63;3.20;;;;;;;24.64;86.52;98738.09;5070253;28;20196;-65
2022/08/26 00:31:01;;;;;;;7.90;4.03;;;;;;;24.70;85.82;98740.09;5070841;28;20200;-65
2022/08/26 00:33:28;;;;;;;7.33;3.57;;;;;;;24.62;85.01;98724.28;5070919;28;20203;-65
2022/08/26 00:35:55;;;;;;;7.33;3.80;;;;;;;24.66;84.55;98732.69;5070451;28;20192;-65
2022/08/26 00:38:23;;;;;;;6.07;3.13;;;;;;;24.60;86.10;98736.75;5070969;28;20204;-65
2022/08/26 00:40:54;;;;;;;4.07;3.23;;;;;;;24.39;86.40;98712.66;5070517;28;20208;-65
2022/08/26 00:43:21;;;;;;;7.17;4.10;;;;;;;24.45;86.08;98714.66;5070792;28;20215;-64
2022/08/26 00:45:52;;;;;;;6.43;3.30;;;;;;;24.48;85.52;98717.81;5071222;28;20199;-65
2022/08/26 00:48:22;;;;;;;10.73;4.17;;;;;;;24.52;85.09;98731.44;5067367;28;20204;-64
2022/08/26 00:50:55;;;;;;;4.83;3.50;;;;;;;24.50;85.16;98722.88;5070242;28;20204;-65
2022/08/26 00:53:26;;;;;;;3.83;3.20;;;;;;;24.51;84.55;98721.94;5068522;28;20224;-65
2022/08/26 00:55:58;;;;;;;5.00;3.40;;;;;;;24.55;84.43;98728.53;5069334;28;20192;-66
2022/08/26 00:58:27;;;;;;;5.70;2.87;;;;;;;24.60;84.45;98722.81;5070607;28;20204;-65
2022/08/26 01:00:55;;;;;;;6.17;3.13;;;;;;;24.61;83.28;98722.66;5070948;28;20663;-65
2022/08/26 01:03:25;;;;;;;8.23;3.47;;;;;;;24.59;83.21;98724.59;5067981;28;20216;-65
2022/08/26 01:05:55;;;;;;;10.17;3.70;;;;;;;24.66;83.55;98724.81;5070392;28;20196;-65
2022/08/26 01:08:22;;;;;;;6.07;4.00;;;;;;;24.69;83.65;98735.84;5066368;28;20196;-65
2022/08/26 01:10:49;;;;;;;13.70;3.20;;;;;;;24.73;89.27;98737.19;5069132;28;20560;-65
2022/08/26 01:13:17;;;;;;;11.60;3.67;;;;;;;24.60;89.33;98725.44;5068765;28;20207;-65
2022/08/26 01:15:47;;;;;;;10.63;3.13;;;;;;;24.41;91.99;98719.38;5068977;28;20196;-65
2022/08/26 01:18:15;;;;;;;6.37;3.40;;;;;;;24.37;85.58;98717.19;5069956;28;20192;-64
2022/08/26 01:20:51;;;;;;;10.33;3.77;;;;;;;24.40;83.85;98716.91;5072331;28;20211;-64
2022/08/26 01:23:19;;;;;;;7.30;2.90;;;;;;;24.45;84.48;98718.13;5072721;28;20196;-64
2022/08/26 01:25:51;;;;;;;7.53;3.20;;;;;;;24.42;84.38;98696.63;5073324;28;20206;-65
2022/08/26 01:28:24;;;;;;;7.27;3.30;;;;;;;24.59;84.89;98708.06;5073957;28;20229;-65
2022/08/26 01:30:53;;;;;;;9.27;3.20;;;;;;;24.67;86.63;98711.56;5073906;28;20199;-65
2022/08/26 01:33:25;;;;;;;8.43;3.33;;;;;;;24.69;86.21;98714.03;5073696;28;20591;-65
2022/08/26 01:35:53;;;;;;;6.67;3.67;;;;;;;24.70;85.50;98711.28;5069781;28;20219;-65
2022/08/26 01:38:22;;;;;;;12.40;3.63;;;;;;;24.68;84.35;98709.78;5073435;28;20211;-65
2022/08/26 01:40:49;;;;;;;10.13;4.23;;;;;;;24.68;84.83;98712.41;5073805;28;20205;-65
2022/08/26 01:43:22;;;;;;;5.37;4.00;;;;;;;24.59;85.86;98698.41;5073523;28;20265;-64
2022/08/26 01:45:50;;;;;;;8.20;3.60;;;;;;;24.60;85.00;98705.28;5073495;28;20192;-65
2022/08/26 01:48:20;;;;;;;4.50;3.67;;;;;;;24.54;85.32;98711.97;5073512;28;20203;-65
2022/08/26 01:50:48;;;;;;;6.43;4.23;;;;;;;24.49;85.49;98700.31;5073323;28;20200;-65
2022/08/26 01:53:18;;;;;;;10.07;4.33;;;;;;;24.48;86.86;98701.25;5073163;28;20200;-65
2022/08/26 01:55:51;;;;;;;8.43;4.13;;;;;;;24.41;87.53;98708.91;5073398;28;20203;-65
2022/08/26 01:58:23;;;;;;;3.93;3.53;;;;;;;24.40;86.62;98711.66;5073332;28;20196;-65
2022/08/26 02:00:50;;;;;;;16.33;4.47;;;;;;;24.36;86.66;98705.09;5073374;28;20291;-65
2022/08/26 02:03:20;;;;;;;6.67;4.37;;;;;;;24.24;86.81;98693.16;5073015;28;20196;-65
2022/08/26 02:05:52;;;;;;;11.53;4.10;;;;;;;24.30;86.86;98708.28;5073218;28;20204;-64
2022/08/26 02:08:22;;;;;;;8.43;3.60;;;;;;;24.30;87.08;98724.00;5073189;28;20204;-64
2022/08/26 02:10:51;;;;;;;8.47;4.50;;;;;;;24.24;88.11;98714.13;5073200;28;20249;-65
2022/08/26 02:13:18;;;;;;;6.40;3.20;;;;;;;24.14;88.00;98718.59;5073029;28;20672;-65
2022/08/26 02:15:45;;;;;;;4.17;3.77;;;;;;;24.04;88.42;98719.47;5072502;28;20642;-65
2022/08/26 02:18:13;;;;;;;11.33;4.30;;;;;;;24.10;89.07;98722.47;5073009;28;20250;-65
2022/08/26 02:20:40;;;;;;;7.30;3.67;;;;;;;24.04;89.83;98716.84;5072857;28;20699;-65
2022/08/26 02:23:07;;;;;;;5.57;3.67;;;;;;;24.05;89.77;98720.28;5072645;28;20613;-65
2022/08/26 02:25:43;;;;;;;10.33;3.70;;;;;;;24.06;90.00;98721.94;5072428;28;20243;-65
2022/08/26 02:28:12;;;;;;;9.30;3.63;;;;;;;24.09;89.66;98715.59;5072801;28;20203;-64
2022/08/26 02:30:41;;;;;;;7.73;4.03;;;;;;;24.14;89.66;98718.59;5072878;28;20634;-64
2022/08/26 02:33:09;;;;;;;3.53;3.23;;;;;;;24.07;89.57;98712.31;5072642;28;20750;-64
2022/08/26 02:35:37;;;;;;;7.83;3.90;;;;;;;24.03;90.60;98707.34;5072378;28;20196;-65
2022/08/26 02:38:06;;;;;;;6.00;3.53;;;;;;;24.00;90.42;98707.66;5072568;28;20610;-64
2022/08/26 02:40:36;;;;;;;7.43;4.20;;;;;;;23.95;90.37;98712.50;5072280;28;20671;-64
2022/08/26 02:43:03;;;;;;;13.00;4.00;;;;;;;23.88;90.74;98708.81;5072585;28;20207;-64
2022/08/26 02:45:32;;;;;;;10.73;3.50;;;;;;;23.82;90.73;98708.56;5072225;28;20216;-64
2022/08/26 02:47:59;;;;;;;5.67;4.70;;;;;;;23.80;91.29;98705.28;5065700;28;20207;-65
2022/08/26 02:50:27;;;;;;;9.63;4.27;;;;;;;23.76;91.00;98702.13;5072236;28;20201;-64
2022/08/26 02:52:55;;;;;;;5.90;4.33;;;;;;;23.71;90.92;98701.75;5071885;28;20208;-64
2022/08/26 02:55:21;;;;;;;15.27;4.30;;;;;;;23.71;91.95;98700.94;5072100;28;20216;-64
2022/08/26 02:57:48;;;;;;;8.03;3.70;;;;;;;23.65;90.93;98699.69;5071444;28;20207;-63
2022/08/26 03:00:16;;;;;;;11.17;3.73;;;;;;;23.66;91.68;98697.91;5070883;28;20207;-64
2022/08/26 03:02:44;;;;;;;10.93;3.80;;;;;;;23.50;91.43;98675.00;5071515;28;20196;-64
2022/08/26 03:05:12;;;;;;;9.30;3.70;;;;;;;23.56;91.58;98687.50;5071032;28;20212;-64
2022/08/26 03:07:39;;;;;;;8.00;3.63;;;;;;;23.61;91.65;98710.63;5071199;28;20192;-64
2022/08/26 03:10:06;;;;;;;13.47;5.80;;;;;;;23.48;91.63;98690.84;5069554;28;20560;-64
2022/08/26 03:12:33;;;;;;;15.50;4.53;;;;;;;23.58;91.11;98701.28;5072019;28;20575;-64
2022/08/26 03:15:00;;;;;;;9.67;4.47;;;;;;;23.59;90.80;98708.13;5071653;28;20203;-64
2022/08/26 03:17:27;;;;;;;13.57;4.07;;;;;;;23.61;91.39;98700.16;5070533;28;20287;-64
2022/08/26 03:19:55;;;;;;;8.80;3.73;;;;;;;23.62;91.28;98697.38;5069222;28;20230;-64
2022/08/26 03:22:22;;;;;;;9.00;3.70;;;;;;;23.61;91.16;98694.94;5069320;28;20445;-64
2022/08/26 03:24:49;;;;;;;18.93;4.30;;;;;;;23.63;91.60;98704.28;5069952;28;20223;-64
2022/08/26 03:27:16;;;;;;;13.03;4.53;;;;;;;23.62;91.41;98702.63;5070280;28;20644;-64
2022/08/26 03:32:27;;;;;;;8.23;3.70;;;;;;;23.48;90.67;98690.03;5070516;28;20255;-64
2022/08/26 03:34:56;;;;;;;6.30;4.50;;;;;;;23.55;90.53;98705.97;5071228;28;20203;-63
2022/08/26 03:37:23;;;;;;;6.17;3.43;;;;;;;23.58;90.57;98706.50;5071403;28;20202;-63
2022/08/26 03:39:50;;;;;;;8.47;3.50;;;;;;;23.55;90.13;98706.81;5071474;28;20200;-64
2022/08/26 03:42:17;;;;;;;4.87;3.33;;;;;;;23.50;90.50;98704.59;5070965;28;20203;-65
2022/08/26 03:44:44;;;;;;;8.87;4.70;;;;;;;23.51;90.36;98701.03;5071178;28;20219;-64
2022/08/26 03:47:11;;;;;;;8.20;4.13;;;;;;;23.49;90.45;98696.88;5071226;28;20204;-63
2022/08/26 03:49:38;;;;;;;6.10;2.83;;;;;;;23.46;90.21;98705.03;5071646;28;20198;-64
2022/08/26 03:52:06;;;;;;;5.40;3.73;;;;;;;23.45;90.39;98706.84;5071157;28;20207;-64
2022/08/26 03:54:34;;;;;;;10.20;3.83;;;;;;;23.44;89.99;98712.22;5071061;28;20295;-64
2022/08/26 03:57:01;;;;;;;10.97;3.57;;;;;;;23.44;89.86;98717.44;5070994;28;20200;-65
2022/08/26 03:59:28;;;;;;;6.83;4.33;;;;;;;23.41;90.29;98713.31;5071020;28;20223;-64
2022/08/26 04:01:55;;;;;;;4.60;4.17;;;;;;;23.41;90.51;98708.09;5071115;28;20200;-64
2022/08/26 04:04:22;;;;;;;10.20;4.27;;;;;;;23.42;89.77;98717.59;5070678;28;20211;-63
2022/08/26 04:06:48;;;;;;;10.63;3.67;;;;;;;23.41;89.79;98709.88;5071213;28;20690;-64
2022/08/26 04:09:20;;;;;;;8.40;3.70;;;;;;;23.40;90.03;98706.44;5069811;28;20199;-64
2022/08/26 04:11:48;;;;;;;11.57;3.90;;;;;;;23.50;89.87;98716.84;5067579;28;20560;-64
2022/08/26 04:14:18;;;;;;;15.43;4.97;;;;;;;23.52;89.88;98712.31;5070886;28;20192;-64
2022/08/26 04:16:45;;;;;;;16.43;3.77;;;;;;;23.54;89.09;98710.38;5070230;28;20564;-63
2022/08/26 04:19:14;;;;;;;4.50;3.83;;;;;;;23.55;89.24;98716.44;5068243;28;20580;-64
2022/08/26 04:21:41;;;;;;;11.60;3.33;;;;;;;23.51;88.08;98715.91;5071158;28;20208;-64
2022/08/26 04:24:11;;;;;;;9.90;4.97;;;;;;;23.52;87.81;98712.31;5070611;28;20206;-63
2022/08/26 04:26:39;;;;;;;11.47;4.03;;;;;;;23.57;88.72;98717.94;5071278;28;20202;-64
2022/08/26 04:29:09;;;;;;;9.63;3.57;;;;;;;23.65;88.46;98702.31;5071199;28;20200;-64
2022/08/26 04:31:37;;;;;;;7.53;3.67;;;;;;;23.68;87.18;98699.44;5070445;28;20207;-64
2022/08/26 04:34:05;;;;;;;14.93;4.33;;;;;;;23.64;86.84;98705.94;5070731;28;20207;-64
2022/08/26 04:36:32;;;;;;;9.67;4.13;;;;;;;23.67;86.32;98705.63;5070442;28;20269;-64
2022/08/26 04:39:01;;;;;;;11.20;3.93;;;;;;;23.70;86.05;98710.56;5070919;28;20204;-63
2022/08/26 04:41:28;;;;;;;12.53;3.53;;;;;;;23.76;85.06;98720.47;5069478;28;20196;-65
2022/08/26 04:43:57;;;;;;;12.10;3.50;;;;;;;23.81;85.33;98717.41;5070745;28;20208;-64
2022/08/26 04:46:24;;;;;;;24.57;3.90;;;;;;;23.87;85.20;98716.84;5070491;28;20220;-64
2022/08/26 04:48:53;;;;;;;8.90;3.93;;;;;;;23.86;84.32;98715.16;5070548;28;20637;-64
2022/08/26 04:51:26;;;;;;;10.97;3.27;;;;;;;24.04;84.06;98719.47;5070561;28;20188;-64
2022/08/26 04:53:55;;;;;;;8.43;3.47;;;;;;;24.15;82.66;98718.47;5072469;28;20224;-65
2022/08/26 04:56:22;;;;;;;7.53;3.53;;;;;;;24.23;82.48;98712.50;5072770;28;20576;-65
2022/08/26 04:58:49;;;;;;;15.83;4.77;;;;;;;24.34;82.10;98712.25;5074362;28;20196;-65
2022/08/26 05:01:17;;;;;;;10.87;3.03;;;;;;;24.39;80.83;98704.78;5074451;28;20200;-65
2022/08/26 05:03:45;;;;;;;9.37;3.40;;;;;;;24.62;80.76;98713.81;5074379;28;20207;-65
2022/08/26 05:06:12;;;;;;;11.47;3.93;;;;;;;24.79;80.26;98722.63;5074241;28;20242;-65
2022/08/26 05:08:39;;;;;;;19.37;4.20;;;;;;;24.87;79.02;98712.25;5074279;28;20192;-65
2022/08/26 05:11:06;;;;;;;10.90;4.37;;;;;;;25.05;78.32;98726.97;5074138;28;20203;-64
2022/08/26 05:13:34;;;;;;;11.60;3.13;;;;;;;25.20;77.74;98731.66;5073896;28;20204;-64
2022/08/26 05:16:04;;;;;;;8.37;3.23;;;;;;;25.30;76.76;98720.06;5073234;28;20196;-65
2022/08/26 05:18:32;;;;;;;13.00;3.63;;;;;;;25.45;76.67;98722.94;5074146;28;20208;-64
2022/08/26 05:21:01;;;;;;;8.80;4.00;;;;;;;25.57;77.11;98727.78;5074227;28;20210;-64
2022/08/26 05:23:30;;;;;;;10.40;3.43;;;;;;;25.67;73.67;98738.16;5074110;28;20574;-65
2022/08/26 05:25:58;;;;;;;5.00;2.60;;;;;;;25.61;75.51;98733.56;5074134;28;20576;-64
2022/08/26 05:28:27;;;;;;;10.20;3.80;;;;;;;25.48;74.11;98738.38;5073840;28;20192;-64
2022/08/26 05:30:55;;;;;;;6.80;2.63;;;;;;;25.39;75.35;98739.31;5073874;28;20664;-65
2022/08/26 05:33:22;;;;;;;8.50;3.60;;;;;;;25.36;76.05;98739.63;5073815;28;20199;-64
2022/08/26 05:35:51;;;;;;;10.37;3.40;;;;;;;25.26;75.66;98733.66;5072456;28;20192;-65
2022/08/26 05:38:21;;;;;;;10.73;3.73;;;;;;;25.25;76.54;98743.31;5073510;28;20203;-65
2022/08/26 05:40:50;;;;;;;12.87;3.70;;;;;;;25.27;76.40;98751.84;5073197;28;20207;-65
2022/08/26 05:43:18;;;;;;;8.57;3.50;;;;;;;25.31;78.01;98757.63;5073977;28;20686;-64
2022/08/26 05:45:47;;;;;;;10.83;3.50;;;;;;;25.27;78.37;98756.28;5073377;28;20215;-65
2022/08/26 05:48:14;;;;;;;7.83;3.57;;;;;;;25.35;77.93;98754.53;5073416;28;20192;-64
2022/08/26 05:50:43;;;;;;;5.83;3.13;;;;;;;25.30;78.33;98750.75;5073434;28;20205;-65
2022/08/26 05:53:13;;;;;;;11.23;3.50;;;;;;;25.25;78.89;98755.63;5073275;28;20873;-65
2022/08/26 05:55:42;;;;;;;11.90;3.20;;;;;;;25.25;79.31;98764.31;5073526;28;20188;-64
2022/08/26 05:58:09;;;;;;;4.77;3.63;;;;;;;25.20;80.04;98755.28;5073440;28;20757;-65
2022/08/26 06:00:36;;;;;;;7.67;3.50;;;;;;;25.24;79.96;98777.56;5073224;28;20207;-65
2022/08/26 06:03:03;;;;;;;19.03;4.57;;;;;;;25.23;79.99;98775.94;5073164;28;20197;-65
2022/08/26 06:05:30;;;;;;;11.43;3.47;;;;;;;25.27;79.46;98767.59;5068756;28;20269;-65
2022/08/26 06:08:13;;;;;;;12.60;4.37;;;;;;;25.31;81.27;98783.84;5073234;28;20691;-65
2022/08/26 06:10:45;;;;;;;7.30;3.50;;;;;;;25.20;80.45;98765.75;5073106;28;20291;-65
2022/08/26 06:13:13;;;;;;;17.63;3.93;;;;;;;25.29;80.77;98783.19;5072543;28;20205;-65
2022/08/26 06:15:41;;;;;;;5.17;3.27;;;;;;;25.24;79.66;98782.81;5073298;28;20664;-64
2022/08/26 06:18:08;;;;;;;11.30;2.97;;;;;;;25.16;80.33;98769.66;5072775;28;20196;-64
2022/08/26 06:20:36;;;;;;;5.80;3.43;;;;;;;25.13;79.78;98765.56;5073110;28;20583;-64
2022/08/26 06:25:49;;;;;;;4.87;3.03;;;;;;;25.17;80.66;98779.19;5070175;28;20309;-65
2022/08/26 06:28:16;;;;;;;8.57;3.27;;;;;;;25.14;78.88;98782.13;5072495;28;20212;-65
2022/08/26 06:30:43;;;;;;;9.60;3.87;;;;;;;25.08;78.17;98779.13;5073029;28;20265;-65
2022/08/26 06:33:10;;;;;;;6.03;3.27;;;;;;;25.06;77.46;98781.06;5072866;28;20203;-65
2022/08/26 06:35:38;;;;;;;7.90;3.70;;;;;;;25.02;77.87;98784.97;5072621;28;20204;-64
2022/08/26 06:38:06;;;;;;;6.70;3.13;;;;;;;25.07;78.06;98787.94;5072525;28;20215;-65
2022/08/26 06:40:35;;;;;;;16.80;3.60;;;;;;;25.05;78.11;98784.66;5072505;28;20226;-65
2022/08/26 06:43:03;;;;;;;11.43;4.17;;;;;;;25.16;79.26;98801.13;5072421;28;20649;-64
2022/08/26 06:45:30;;;;;;;7.87;3.57;;;;;;;25.19;79.32;98796.41;5072519;28;20265;-65
2022/08/26 06:47:57;;;;;;;9.47;3.40;;;;;;;25.25;79.46;98797.59;5072486;28;20192;-65
2022/08/26 06:50:24;;;;;;;4.33;3.50;;;;;;;25.36;77.85;98810.47;5072250;28;20234;-65
2022/08/26 06:52:51;;;;;;;6.60;3.80;;;;;;;25.40;78.32;98810.00;5072658;28;20200;-65
2022/08/26 06:55:18;;;;;;;5.80;3.27;;;;;;;25.44;79.10;98815.75;5072040;28;20219;-64
2022/08/26 06:57:45;;;;;;;14.07;3.83;;;;;;;25.44;78.16;98815.75;5072484;28;20196;-65
2022/08/26 07:00:15;;;;;;;8.63;3.13;;;;;;;25.51;78.63;98822.09;5071976;28;20207;-65
2022/08/26 07:02:41;;;;;;;9.10;3.60;;;;;;;25.49;78.54;98824.00;5072339;28;20196;-65
2022/08/26 07:05:09;;;;;;;10.53;3.63;;;;;;;25.58;78.63;98817.88;5071913;28;20226;-65
2022/08/26 07:07:36;;;;;;;9.33;3.40;;;;;;;25.58;76.88;98829.19;5071984;28;20660;-64
2022/08/26 07:10:03;;;;;;;12.63;3.43;;;;;;;25.56;78.68;98820.63;5072260;28;20594;-65
2022/08/26 07:12:30;;;;;;;13.87;3.30;;;;;;;25.69;78.64;98830.72;5071705;28;20204;-65
2022/08/26 07:14:56;;;;;;;10.93;3.83;;;;;;;25.74;78.05;98815.34;5070650;28;20660;-65
2022/08/26 07:17:25;;;;;;;11.97;3.37;;;;;;;25.81;76.95;98824.22;5071062;28;20205;-65
2022/08/26 07:19:52;;;;;;;5.60;3.17;;;;;;;25.79;78.88;98810.41;5072020;28;20318;-65
2022/08/26 07:22:19;;;;;;;7.33;3.47;;;;;;;25.90;76.92;98828.53;5071842;28;21018;-64
2022/08/26 07:24:46;;;;;;;5.73;3.53;;;;;;;25.93;76.56;98838.72;5071899;28;20204;-65
2022/08/26 07:27:14;;;;;;;8.03;3.47;;;;;;;26.00;75.66;98836.31;5071834;28;20215;-65
2022/08/26 07:29:42;;;;;;;7.50;3.70;;;;;;;26.13;76.86;98833.25;5071609;28;20199;-65
2022/08/26 07:32:11;;;;;;;10.17;2.83;;;;;;;26.21;76.47;98836.72;5071738;28;20200;-65
2022/08/26 07:34:41;;;;;;;4.87;3.37;;;;;;;26.26;76.52;98838.91;5065329;28;20257;-65
2022/08/26 07:37:09;;;;;;;15.97;4.03;;;;;;;26.34;75.64;98831.84;5068199;28;20199;-65
2022/08/26 07:39:35;;;;;;;11.27;3.83;;;;;;;26.45;75.51;98831.56;5071695;28;20192;-65
2022/08/26 07:42:05;;;;;;;13.37;3.90;;;;;;;26.51;79.23;98806.44;5071457;28;20682;-64
2022/08/26 07:44:32;;;;;;;9.20;4.17;;;;;;;26.56;82.61;98789.19;5072193;28;20218;-64
2022/08/26 07:46:59;;;;;;;10.30;3.47;;;;;;;26.57;81.43;98801.34;5071235;28;20220;-64
2022/08/26 07:49:26;;;;;;;12.77;3.73;;;;;;;26.62;80.91;98804.31;5071478;28;20718;-65
2022/08/26 07:51:55;;;;;;;8.13;3.40;;;;;;;26.72;80.35;98804.16;5071289;28;20225;-65
2022/08/26 07:54:22;;;;;;;15.13;3.60;;;;;;;26.80;78.43;98806.81;5071438;28;20423;-65
2022/08/26 07:56:49;;;;;;;7.40;3.23;;;;;;;26.90;77.48;98819.84;5071439;28;20291;-65
2022/08/26 07:59:17;;;;;;;9.07;3.03;;;;;;;26.99;74.92;98816.22;5071605;28;20203;-65
2022/08/26 08:01:44;;;;;;;12.43;4.07;;;;;;;27.01;72.27;98825.59;5071574;28;20218;-65
2022/08/26 08:04:11;;;;;;;5.70;2.93;;;;;;;27.03;73.50;98822.81;5071737;28;20587;-66
2022/08/26 08:06:38;;;;;;;7.93;3.80;;;;;;;27.01;71.74;98830.06;5068570;28;20224;-65
2022/08/26 08:09:06;;;;;;;11.47;2.97;;;;;;;27.05;73.62;98831.34;5071091;28;20234;-65
2022/08/26 08:11:33;;;;;;;6.20;3.47;;;;;;;27.08;74.08;98837.09;5071321;28;20196;-65
2022/08/26 08:14:00;;;;;;;4.60;2.97;;;;;;;27.12;75.11;98834.97;5071311;28;20196;-65
2022/08/26 08:16:28;;;;;;;8.17;2.87;;;;;;;27.16;74.95;98825.75;5071362;28;20196;-65
2022/08/26 08:18:55;;;;;;;7.27;3.30;;;;;;;27.20;73.68;98824.47;5071200;28;20192;-65
2022/08/26 08:21:23;;;;;;;8.50;3.17;;;;;;;27.24;72.54;98824.94;5071667;28;20249;-65
2022/08/26 08:23:50;;;;;;;5.60;3.23;;;;;;;27.25;72.90;98811.59;5071120;28;20200;-65
2022/08/26 08:26:18;;;;;;;8.10;3.17;;;;;;;27.29;73.31;98815.56;5071085;28;20309;-66
2022/08/26 08:28:46;;;;;;;9.47;3.77;;;;;;;27.36;72.56;98824.44;5074657;28;20200;-65
2022/08/26 08:31:20;;;;;;;3.57;2.97;;;;;;;27.28;72.89;98820.97;5075143;28;20689;-65
2022/08/26 08:33:47;;;;;;;5.20;2.87;;;;;;;27.44;72.32;98842.06;5075169;28;20625;-65
2022/08/26 08:36:15;;;;;;;6.27;2.50;;;;;;;27.49;73.69;98837.94;5074911;28;20210;-65
2022/08/26 08:38:43;;;;;;;9.90;3.17;;;;;;;27.56;72.81;98835.47;5075162;28;20290;-65
2022/08/26 08:41:27;;;;;;;14.87;3.20;;;;;;;27.60;72.97;98836.75;5075041;28;20207;-65
2022/08/26 08:43:55;;;;;;;9.80;3.33;;;;;;;27.63;71.01;98839.06;5073937;28;20291;-65
2022/08/26 08:46:23;;;;;;;6.63;2.70;;;;;;;27.65;71.43;98829.19;5074903;28;20211;-65
2022/08/26 08:48:57;;;;;;;4.27;2.83;;;;;;;27.66;71.61;98825.53;5075155;28;20218;-65
2022/08/26 08:51:38;;;;;;;12.70;3.20;;;;;;;27.84;73.02;98834.06;5074862;28;20191;-65
2022/08/26 08:54:06;;;;;;;5.17;3.20;;;;;;;27.93;72.44;98830.41;5074458;28;20225;-65
2022/08/26 08:56:38;;;;;;;9.97;3.20;;;;;;;27.98;72.77;98820.19;5074793;28;20196;-65
2022/08/26 08:59:13;;;;;;;8.33;3.13;;;;;;;28.05;71.20;98829.09;5074648;28;20198;-66
2022/08/26 09:02:01;;;;;;;13.30;4.13;;;;;;;28.22;70.63;98829.00;5070761;28;20583;-65
2022/08/26 09:04:55;;;;;;;10.20;4.27;;;;;;;28.38;70.73;98821.03;5073794;28;20215;-66
2022/08/26 09:07:26;;;;;;;11.17;3.67;;;;;;;28.51;72.14;98826.56;5074110;28;20641;-65
2022/08/26 09:09:58;;;;;;;12.70;3.47;;;;;;;28.58;68.70;98827.50;5074524;28;20202;-65
2022/08/26 09:12:30;;;;;;;11.97;2.90;;;;;;;28.70;69.08;98826.13;5071871;28;20204;-65
2022/08/26 09:15:04;;;;;;;11.60;3.67;;;;;;;28.77;68.95;98816.53;5074217;28;20200;-65
2022/08/26 09:17:40;;;;;;;5.37;3.60;;;;;;;28.97;65.31;98822.16;5074287;28;20215;-65
2022/08/26 09:20:18;;;;;;;15.10;3.43;;;;;;;29.06;63.43;98806.06;5074114;28;20215;-65
2022/08/26 09:22:45;;;;;;;7.60;2.67;;;;;;;29.23;63.07;98821.78;5074494;28;20218;-65
2022/08/26 09:25:14;;;;;;;12.13;3.17;;;;;;;29.32;65.50;98815.44;5073989;28;20207;-65
2022/08/26 09:27:45;;;;;;;6.50;2.83;;;;;;;29.44;63.77;98814.00;5074163;28;20218;-65
2022/08/26 09:30:15;;;;;;;9.83;3.50;;;;;;;29.62;60.80;98823.25;5074013;28;20622;-66
2022/08/26 09:32:43;;;;;;;9.03;3.07;;;;;;;29.78;56.47;98822.25;5074183;28;20552;-65
2022/08/26 09:35:25;;;;;;;9.17;3.80;;;;;;;29.86;51.24;98824.81;5073994;28;20196;-66
2022/08/26 09:37:51;;;;;;;3.87;2.63;;;;;;;29.99;51.55;98834.75;5074098;28;20192;-65
2022/08/26 09:40:26;;;;;;;4.18;3.13;;;;;;;30.05;50.77;98829.53;5073206;28;20208;-65
2022/08/26 09:43:15;;;;;;;8.73;3.17;;;;;;;30.08;54.43;98828.38;5073877;28;20200;-66
2022/08/26 09:45:45;;;;;;;8.50;3.60;;;;;;;30.11;52.98;98820.88;5073162;28;20261;-65
2022/08/26 09:48:24;;;;;;;8.60;3.42;;;;;;;30.16;51.13;98829.09;5073896;28;20196;-65
2022/08/26 09:50:54;;;;;;;10.88;3.28;;;;;;;30.11;49.23;98815.56;5073832;28;20196;-65
2022/08/26 09:53:24;;;;;;;9.02;2.75;;;;;;;30.32;50.47;98835.16;5073643;28;20741;-66
2022/08/26 09:56:10;;;;;;;5.15;2.85;;;;;;;30.34;46.13;98838.44;5073668;28;20215;-66
2022/08/26 09:58:40;;;;;;;10.40;2.83;;;;;;;30.48;45.92;98834.97;5073600;28;20587;-66
2022/08/26 10:01:14;;;;;;;7.55;2.70;;;;;;;30.62;44.77;98840.22;5073577;28;20195;-65
2022/08/26 10:03:43;;;;;;;4.95;3.40;;;;;;;30.80;45.25;98847.72;5073285;28;20638;-66
2022/08/26 10:06:23;;;;;;;5.72;2.78;;;;;;;30.80;44.03;98842.44;5073858;28;20689;-66
2022/08/26 10:08:52;;;;;;;3.30;3.08;;;;;;;30.70;44.51;98828.69;5073484;28;20196;-66
2022/08/26 10:11:23;;;;;;;6.53;3.28;;;;;;;30.68;42.63;98852.72;5073377;28;20200;-66
2022/08/26 10:13:56;;;;;;;4.18;2.60;;;;;;;30.54;42.63;98844.81;5068092;28;20199;-66
2022/08/26 10:16:28;;;;;;;10.43;3.75;;;;;;;30.49;43.00;98845.38;5073264;28;20249;-65
2022/08/26 10:19:00;;;;;;;5.82;3.13;;;;;;;30.51;41.42;98861.06;5073096;28;20284;-66
2022/08/26 10:21:32;;;;;;;8.50;3.28;;;;;;;30.45;40.58;98851.22;5073328;28;20663;-65
2022/08/26 10:24:02;;;;;;;5.18;3.03;;;;;;;30.55;42.83;98851.75;5073116;28;20203;-66
2022/08/26 10:26:35;;;;;;;3.58;3.28;;;;;;;30.46;41.27;98847.56;5073093;28;20687;-65
2022/08/26 10:29:13;;;;;;;20.92;3.42;;;;;;;30.29;41.70;98857.50;5072702;28;20204;-65
2022/08/26 10:31:46;;;;;;;9.98;3.60;;;;;;;30.11;42.24;98855.25;5072906;28;20195;-65
2022/08/26 10:34:14;;;;;;;7.40;3.50;;;;;;;29.94;42.42;98863.56;5072960;28;20206;-66
2022/08/26 10:36:50;;;;;;;6.00;3.17;;;;;;;29.87;43.17;98866.09;5072797;28;20192;-65
2022/08/26 10:39:26;;;;;;;16.67;3.20;;;;;;;29.73;43.23;98872.16;5072902;28;20203;-65
2022/08/26 10:41:58;;;;;;;6.83;2.87;;;;;;;29.04;47.88;98882.00;5072500;28;20204;-67
2022/08/26 10:44:31;;;;;;;8.73;3.60;;;;;;;28.34;51.04;98896.19;5070486;28;20594;-65
2022/08/26 10:47:03;;;;;;;4.50;4.10;;;;;;;28.25;49.37;98878.75;5071818;28;20216;-65
2022/08/26 10:49:30;;;;;;;8.93;3.50;;;;;;;28.41;47.92;98860.22;5072440;28;20207;-65
2022/08/26 10:52:02;;;;;;;7.00;3.00;;;;;;;28.67;51.37;98855.50;5071932;28;20196;-65
2022/08/26 10:54:38;;;;;;;9.97;3.57;;;;;;;28.86;51.69;98854.22;5070308;28;20617;-65
2022/08/26 10:57:12;;;;;;;5.13;2.97;;;;;;;28.96;48.53;98847.72;5070603;28;20659;-66
2022/08/26 10:59:52;;;;;;;3.10;2.40;;;;;;;28.96;47.47;98853.00;5070116;28;20215;-65
2022/08/26 11:02:25;;;;;;;3.93;3.03;;;;;;;28.95;47.97;98851.34;5071033;28;20556;-65
2022/08/26 11:04:56;;;;;;;7.90;4.17;;;;;;;28.99;46.55;98846.53;5072219;28;20723;-66
2022/08/26 11:07:39;;;;;;;4.00;3.63;;;;;;;28.94;45.33;98847.09;5067374;28;20604;-65
2022/08/26 11:10:31;;;;;;;6.60;3.53;;;;;;;28.95;44.60;98845.28;5072161;28;20218;-66
2022/08/26 11:13:02;;;;;;;7.33;2.90;;;;;;;28.95;45.51;98835.50;5071565;28;20211;-64
2022/08/26 11:16:05;;;;;;;9.77;3.53;;;;;;;29.07;44.48;98849.97;5071983;28;20188;-65
2022/08/26 11:18:45;;;;;;;12.30;3.60;;;;;;;29.09;44.70;98842.69;5067441;28;20282;-66
2022/08/26 11:22:01;;;;;;;8.90;4.07;;;;;;;29.16;44.99;98843.59;5071404;28;20282;-65
2022/08/26 11:25:01;;;;;;;15.90;3.73;;;;;;;29.25;44.25;98839.09;5070735;28;20210;-65
2022/08/26 11:28:01;;;;;;;6.57;3.50;;;;;;;29.28;44.39;98830.00;5069139;28;20223;-65
2022/08/26 11:30:55;;;;;;;10.07;4.23;;;;;;;29.36;43.72;98832.56;5070432;28;20203;-65
2022/08/26 11:33:57;;;;;;;13.63;4.27;;;;;;;29.50;44.67;98829.16;5047149;28;20196;-65
2022/08/26 11:36:54;;;;;;;11.30;3.47;;;;;;;29.55;44.01;98830.25;5070902;28;20552;-65
2022/08/26 11:39:29;;;;;;;9.70;4.13;;;;;;;29.49;42.95;98824.88;5069867;28;20196;-65
2022/08/26 11:42:00;;;;;;;4.70;3.17;;;;;;;29.46;42.58;98812.03;5071456;28;20199;-65
2022/08/26 11:44:36;;;;;;;10.23;3.83;;;;;;;29.61;42.54;98821.59;5071296;28;20205;-66
2022/08/26 11:47:03;;;;;;;7.80;3.57;;;;;;;29.73;42.29;98827.25;5071309;28;20385;-65
2022/08/26 11:49:32;;;;;;;12.90;4.30;;;;;;;29.89;41.91;98821.81;5071374;28;20686;-65
2022/08/26 11:52:17;;;;;;;10.15;3.72;;;;;;;29.92;40.49;98818.78;5071559;28;20574;-65